createdAt,value
2023-04-24T00:01:45.861Z,21.93
2023-04-24T00:04:17.590Z,22.40
2023-04-24T00:06:45.554Z,23.00
2023-04-24T00:09:13.589Z,22.76
2023-04-24T00:11:41.472Z,22.90
2023-04-24T00:14:09.319Z,22.07
2023-04-24T00:16:37.244Z,22.51
2023-04-24T00:19:06.966Z,21.71
2023-04-24T00:21:34.841Z,22.38
2023-04-24T00:24:02.681Z,22.05
2023-04-24T00:26:30.475Z,21.91
2023-04-24T00:28:58.367Z,21.96
2023-04-24T00:31:28.314Z,22.51
2023-04-24T00:33:56.220Z,22.36
2023-04-24T00:36:26.070Z,22.49
2023-04-24T00:38:53.935Z,22.63
2023-04-24T00:41:22.071Z,22.04
2023-04-24T00:43:50.023Z,22.16
2023-04-24T00:46:18.750Z,22.43
2023-04-24T00:48:46.706Z,22.34
2023-04-24T00:51:15.072Z,21.73
2023-04-24T00:53:44.310Z,21.29
2023-04-24T00:56:12.706Z,22.06
2023-04-24T00:58:40.892Z,22.77
2023-04-24T01:01:09.163Z,23.16
2023-04-24T01:03:38.534Z,22.34
2023-04-24T01:06:07.818Z,21.54
2023-04-24T01:08:38.326Z,21.94
2023-04-24T01:11:08.105Z,21.91
2023-04-24T01:13:36.899Z,20.76
2023-04-24T01:16:05.193Z,22.40
2023-04-24T01:18:33.278Z,23.32
2023-04-24T01:21:05.928Z,22.80
2023-04-24T01:23:35.858Z,23.29
2023-04-24T01:26:04.316Z,23.46
2023-04-24T01:28:32.711Z,24.37
2023-04-24T01:31:01.618Z,23.61
2023-04-24T01:33:29.689Z,23.96
2023-04-24T01:35:58.454Z,23.54
2023-04-24T01:38:26.421Z,24.07
2023-04-24T01:40:55.934Z,24.42
2023-04-24T01:43:24.123Z,23.39
2023-04-24T01:45:52.099Z,24.37
2023-04-24T01:48:20.242Z,24.67
2023-04-24T01:50:48.288Z,24.15
2023-04-24T01:53:16.506Z,24.15
2023-04-24T01:55:44.564Z,24.13
2023-04-24T01:58:16.488Z,23.82
2023-04-24T02:00:44.474Z,23.94
2023-04-24T02:03:12.524Z,24.53
2023-04-24T02:05:40.443Z,23.72
2023-04-24T02:08:08.338Z,23.44
2023-04-24T02:10:39.124Z,23.09
2023-04-24T02:13:07.374Z,21.75
2023-04-24T02:15:37.009Z,21.77
2023-04-24T02:18:05.367Z,21.66
2023-04-24T02:20:35.028Z,21.25
2023-04-24T02:23:03.094Z,22.29
2023-04-24T02:25:31.022Z,22.27
2023-04-24T02:27:59.226Z,22.48
2023-04-24T02:30:28.011Z,22.66
2023-04-24T02:32:57.309Z,23.31
2023-04-24T02:35:25.621Z,23.07
2023-04-24T02:37:53.576Z,23.13
2023-04-24T02:40:21.623Z,22.14
2023-04-24T02:42:49.462Z,22.66
2023-04-24T02:45:18.921Z,22.63
2023-04-24T02:47:47.153Z,22.60
2023-04-24T02:50:16.481Z,22.78
2023-04-24T02:52:44.339Z,22.41
2023-04-24T02:55:12.560Z,22.31
2023-04-24T02:57:40.393Z,21.89
2023-04-24T03:00:10.157Z,21.41
2023-04-24T03:02:38.287Z,21.37
2023-04-24T03:05:07.080Z,21.81
2023-04-24T03:07:36.596Z,21.37
2023-04-24T03:10:04.763Z,22.25
2023-04-24T03:12:32.703Z,22.83
2023-04-24T03:15:00.679Z,22.44
2023-04-24T03:17:28.545Z,21.87
2023-04-24T03:19:56.460Z,22.77
2023-04-24T03:22:24.451Z,21.28
2023-04-24T03:24:53.780Z,22.05
2023-04-24T03:27:21.851Z,22.07
2023-04-24T03:29:57.050Z,22.13
2023-04-24T03:32:47.794Z,22.28
2023-04-24T03:35:20.553Z,21.85
2023-04-24T03:37:48.588Z,21.99
2023-04-24T03:40:46.668Z,22.37
2023-04-24T03:43:37.739Z,22.45
2023-04-24T03:46:08.023Z,22.48
2023-04-24T03:48:40.229Z,22.16
2023-04-24T03:51:09.919Z,21.57
2023-04-24T03:53:40.522Z,22.11
2023-04-24T03:56:10.535Z,21.37
2023-04-24T03:58:39.202Z,21.67
2023-04-24T04:01:07.477Z,21.98
2023-04-24T04:03:50.891Z,21.60
2023-04-24T04:06:22.489Z,21.60
2023-04-24T04:08:51.951Z,21.99
2023-04-24T04:11:21.236Z,21.41
2023-04-24T04:13:49.133Z,21.75
2023-04-24T04:16:20.147Z,21.74
2023-04-24T04:18:50.542Z,21.03
2023-04-24T04:21:18.967Z,20.84
2023-04-24T04:23:47.492Z,21.25
2023-04-24T04:26:22.131Z,21.72
2023-04-24T04:29:04.586Z,21.42
2023-04-24T04:31:33.901Z,22.13
2023-04-24T04:34:06.872Z,22.31
2023-04-24T04:36:37.812Z,21.79
2023-04-24T04:39:22.303Z,22.21
2023-04-24T04:42:01.489Z,22.01
2023-04-24T04:44:37.383Z,21.67
2023-04-24T04:47:07.595Z,21.43
2023-04-24T04:49:37.958Z,22.79
2023-04-24T04:52:08.104Z,22.21
2023-04-24T04:54:35.997Z,21.56
2023-04-24T04:57:05.511Z,22.35
2023-04-24T04:59:38.278Z,22.70
2023-04-24T05:02:11.606Z,23.05
2023-04-24T05:04:40.056Z,22.87
2023-04-24T05:07:08.464Z,22.56
2023-04-24T05:09:40.941Z,22.40
2023-04-24T05:12:10.447Z,21.48
2023-04-24T05:14:46.093Z,22.03
2023-04-24T05:17:14.805Z,22.68
2023-04-24T05:19:43.042Z,23.33
2023-04-24T05:22:12.492Z,22.18
2023-04-24T05:24:49.083Z,22.62
2023-04-24T05:27:44.415Z,22.01
2023-04-24T05:30:17.145Z,23.19
2023-04-24T05:32:45.751Z,22.00
2023-04-24T05:35:15.206Z,22.76
2023-04-24T05:37:43.506Z,23.72
2023-04-24T05:40:14.262Z,22.99
2023-04-24T05:42:42.472Z,22.44
2023-04-24T05:45:17.393Z,23.54
2023-04-24T05:47:45.995Z,22.77
2023-04-24T05:50:14.783Z,22.92
2023-04-24T05:52:42.694Z,22.19
2023-04-24T05:55:23.572Z,23.44
2023-04-24T05:57:51.877Z,23.81
2023-04-24T06:00:21.616Z,22.69
2023-04-24T06:03:01.198Z,22.85
2023-04-24T06:05:29.718Z,23.08
2023-04-24T06:07:57.882Z,22.88
2023-04-24T06:10:29.398Z,21.40
2023-04-24T06:13:01.429Z,21.54
2023-04-24T06:15:33.257Z,21.28
2023-04-24T06:18:06.715Z,22.49
2023-04-24T06:20:38.346Z,21.25
2023-04-24T06:23:08.600Z,20.60
2023-04-24T06:25:37.483Z,20.84
2023-04-24T06:28:05.926Z,21.63
2023-04-24T06:30:35.260Z,21.41
2023-04-24T06:33:12.974Z,21.29
2023-04-24T06:35:47.876Z,21.72
2023-04-24T06:38:16.981Z,21.89
2023-04-24T06:40:45.140Z,22.34
2023-04-24T06:43:13.049Z,22.79
2023-04-24T06:45:44.328Z,22.15
2023-04-24T06:48:12.488Z,22.09
2023-04-24T06:50:40.296Z,21.71
2023-04-24T06:53:08.199Z,22.25
2023-04-24T06:55:37.554Z,21.71
2023-04-24T06:58:05.744Z,21.76
2023-04-24T07:00:33.689Z,22.69
2023-04-24T07:03:03.684Z,22.84
2023-04-24T07:05:31.878Z,22.34
2023-04-24T07:08:00.337Z,22.97
2023-04-24T07:10:29.668Z,23.56
2023-04-24T07:12:58.073Z,22.73
2023-04-24T07:15:26.237Z,22.21
2023-04-24T07:17:54.254Z,22.23
2023-04-24T07:20:23.895Z,21.94
2023-04-24T07:22:52.732Z,22.46
2023-04-24T07:25:20.727Z,22.86
2023-04-24T07:27:49.974Z,22.86
2023-04-24T07:30:17.974Z,23.03
2023-04-24T07:32:45.899Z,22.46
2023-04-24T07:35:13.874Z,22.02
2023-04-24T07:37:46.784Z,21.31
2023-04-24T07:40:15.111Z,21.97
2023-04-24T07:42:42.976Z,22.10
2023-04-24T07:45:11.091Z,22.00
2023-04-24T07:47:40.543Z,22.95
2023-04-24T07:50:08.817Z,23.51
2023-04-24T07:52:36.902Z,24.04
2023-04-24T07:55:07.079Z,22.33
2023-04-24T07:57:35.051Z,23.33
2023-04-24T08:00:04.977Z,22.70
2023-04-24T08:02:39.687Z,23.30
2023-04-24T08:05:08.770Z,24.12
2023-04-24T08:07:37.350Z,23.11
2023-04-24T08:10:08.156Z,23.15
2023-04-24T08:12:36.045Z,23.54
2023-04-24T08:15:04.137Z,23.54
2023-04-24T08:17:32.202Z,22.74
2023-04-24T08:20:02.383Z,22.44
2023-04-24T08:22:30.773Z,23.16
2023-04-24T08:24:59.357Z,22.21
2023-04-24T08:27:29.819Z,22.97
2023-04-24T08:29:59.714Z,23.32
2023-04-24T08:32:28.906Z,23.08
2023-04-24T08:34:57.318Z,22.14
2023-04-24T08:37:25.284Z,23.01
2023-04-24T08:39:53.335Z,22.04
2023-04-24T08:42:22.268Z,23.13
2023-04-24T08:44:52.344Z,24.30
2023-04-24T08:47:22.772Z,23.28
2023-04-24T08:49:52.349Z,23.38
2023-04-24T08:52:21.152Z,22.50
2023-04-24T08:54:49.624Z,22.11
2023-04-24T08:57:18.431Z,22.80
2023-04-24T08:59:47.573Z,21.75
2023-04-24T09:02:18.169Z,22.61
2023-04-24T09:04:48.147Z,23.27
2023-04-24T09:07:18.976Z,22.59
2023-04-24T09:09:47.394Z,23.94
2023-04-24T09:12:15.701Z,23.07
2023-04-24T09:14:46.179Z,24.35
2023-04-24T09:17:14.921Z,23.48
2023-04-24T09:19:44.277Z,21.97
2023-04-24T09:22:13.084Z,22.74
2023-04-24T09:24:40.947Z,22.97
2023-04-24T09:27:11.291Z,22.31
2023-04-24T09:29:39.262Z,22.74
2023-04-24T09:32:20.850Z,22.43
2023-04-24T09:34:51.541Z,21.89
2023-04-24T09:37:31.144Z,22.28
2023-04-24T09:40:13.786Z,22.28
2023-04-24T09:42:42.214Z,23.23
2023-04-24T09:45:17.635Z,23.59
2023-04-24T09:47:45.699Z,23.39
2023-04-24T09:50:18.272Z,22.90
2023-04-24T09:52:57.888Z,23.27
2023-04-24T09:55:26.722Z,22.58
2023-04-24T09:57:55.743Z,24.02
2023-04-24T10:00:28.604Z,24.55
2023-04-24T10:03:00.297Z,23.53
2023-04-24T10:05:34.641Z,21.40
2023-04-24T10:08:05.010Z,21.82
2023-04-24T10:10:33.408Z,22.51
2023-04-24T10:13:02.081Z,23.49
2023-04-24T10:15:30.253Z,23.61
2023-04-24T10:18:00.657Z,23.34
2023-04-24T10:20:31.778Z,22.69
2023-04-24T10:23:02.738Z,23.08
2023-04-24T10:25:32.318Z,22.98
2023-04-24T10:28:01.598Z,22.65
2023-04-24T10:30:30.883Z,23.92
2023-04-24T10:32:58.948Z,24.12
2023-04-24T10:35:27.820Z,22.14
2023-04-24T10:38:01.890Z,20.83
2023-04-24T10:40:34.260Z,23.24
2023-04-24T10:43:07.096Z,22.82
2023-04-24T10:45:35.061Z,23.21
2023-04-24T10:48:06.401Z,22.74
2023-04-24T10:50:45.795Z,23.13
2023-04-24T10:53:19.120Z,22.40
2023-04-24T10:55:50.612Z,22.59
2023-04-24T10:58:23.520Z,22.03
2023-04-24T11:00:59.098Z,21.94
2023-04-24T11:03:29.882Z,22.61
2023-04-24T11:06:00.122Z,23.64
2023-04-24T11:08:32.165Z,24.08
2023-04-24T11:11:03.780Z,23.96
2023-04-24T11:14:07.502Z,22.99
2023-04-24T11:16:46.726Z,22.44
2023-04-24T11:19:25.769Z,22.83
2023-04-24T11:22:01.414Z,22.67
2023-04-24T11:24:34.329Z,22.47
2023-04-24T11:27:09.435Z,22.67
2023-04-24T11:29:42.015Z,22.49
2023-04-24T11:32:29.688Z,22.23
2023-04-24T11:34:59.364Z,22.70
2023-04-24T11:37:29.770Z,23.47
2023-04-24T11:39:59.648Z,24.63
2023-04-24T11:42:30.383Z,25.14
2023-04-24T11:44:58.676Z,23.86
2023-04-24T11:47:31.344Z,21.97
2023-04-24T11:50:01.971Z,21.98
2023-04-24T11:52:31.089Z,23.13
2023-04-24T11:54:59.467Z,22.80
2023-04-24T11:57:34.468Z,22.42
2023-04-24T12:00:04.636Z,22.75
2023-04-24T12:02:40.428Z,23.50
2023-04-24T12:05:13.099Z,23.67
2023-04-24T12:07:44.265Z,22.39
2023-04-24T12:10:12.853Z,22.41
2023-04-24T12:12:42.104Z,23.11
2023-04-24T12:15:11.141Z,22.03
2023-04-24T12:17:43.957Z,21.68
2023-04-24T12:20:13.387Z,21.40
2023-04-24T12:22:48.963Z,22.31
2023-04-24T12:25:20.330Z,22.43
2023-04-24T12:27:55.660Z,22.08
2023-04-24T12:30:29.140Z,22.55
2023-04-24T12:32:59.741Z,22.61
2023-04-24T12:35:29.862Z,22.67
2023-04-24T12:37:57.709Z,22.30
2023-04-24T12:40:27.588Z,23.72
2023-04-24T12:42:58.059Z,23.48
2023-04-24T12:45:26.468Z,23.43
2023-04-24T12:47:54.364Z,24.38
2023-04-24T12:50:22.186Z,22.90
2023-04-24T12:52:50.092Z,23.07
2023-04-24T12:55:18.036Z,22.86
2023-04-24T12:57:46.062Z,23.47
2023-04-24T13:00:18.623Z,22.73
2023-04-24T13:02:48.068Z,21.96
2023-04-24T13:05:16.600Z,21.58
2023-04-24T13:07:44.858Z,21.33
2023-04-24T13:10:14.218Z,20.97
2023-04-24T13:12:42.378Z,21.42
2023-04-24T13:15:11.013Z,20.40
2023-04-24T13:17:40.621Z,19.70
2023-04-24T13:20:09.364Z,19.91
2023-04-24T13:22:38.094Z,19.96
2023-04-24T13:25:08.257Z,20.34
2023-04-24T13:27:36.242Z,20.76
2023-04-24T13:30:05.231Z,21.36
2023-04-24T13:32:34.434Z,21.52
2023-04-24T13:35:03.715Z,21.16
2023-04-24T13:37:31.746Z,21.35
2023-04-24T13:39:59.847Z,21.46
2023-04-24T13:42:27.821Z,20.71
2023-04-24T13:44:56.307Z,20.74
2023-04-24T13:47:24.153Z,20.99
2023-04-24T13:49:51.952Z,20.28
2023-04-24T13:52:21.197Z,20.00
2023-04-24T13:54:49.091Z,20.32
2023-04-24T13:57:17.959Z,20.15
2023-04-24T13:59:46.514Z,19.12
2023-04-24T14:02:14.500Z,20.02
2023-04-24T14:04:42.843Z,19.62
2023-04-24T14:07:10.773Z,19.83
2023-04-24T14:09:40.148Z,20.25
2023-04-24T14:12:08.863Z,20.45
2023-04-24T14:14:41.104Z,20.07
2023-04-24T14:17:09.085Z,19.45
2023-04-24T14:19:37.135Z,19.26
2023-04-24T14:22:05.163Z,19.61
2023-04-24T14:24:33.134Z,19.23
2023-04-24T14:27:02.611Z,20.31
2023-04-24T14:29:30.662Z,20.07
2023-04-24T14:31:58.683Z,17.96
2023-04-24T14:34:26.769Z,19.01
2023-04-24T14:36:54.889Z,20.05
2023-04-24T14:39:22.908Z,19.37
2023-04-24T14:41:50.754Z,18.83
2023-04-24T14:44:20.033Z,19.95
2023-04-24T14:46:48.053Z,19.28
2023-04-24T14:49:15.950Z,19.49
2023-04-24T14:51:44.524Z,20.51
2023-04-24T14:54:12.486Z,19.96
2023-04-24T14:56:41.834Z,19.41
2023-04-24T14:59:09.889Z,21.07
2023-04-24T15:01:39.253Z,20.62
2023-04-24T15:04:07.393Z,22.03
2023-04-24T15:06:35.641Z,20.84
2023-04-24T15:09:03.507Z,21.31
2023-04-24T15:11:31.392Z,20.03
2023-04-24T15:13:59.392Z,20.90
2023-04-24T15:16:27.773Z,21.31
2023-04-24T15:19:00.293Z,19.38
2023-04-24T15:21:28.271Z,19.90
2023-04-24T15:23:56.344Z,20.18
2023-04-24T15:26:25.071Z,20.51
2023-04-24T15:28:53.212Z,20.82
2023-04-24T15:31:21.391Z,21.15
2023-04-24T15:33:50.555Z,20.90
2023-04-24T15:36:23.721Z,20.33
2023-04-24T15:38:51.903Z,21.20
2023-04-24T15:41:20.163Z,21.57
2023-04-24T15:43:48.258Z,21.87
2023-04-24T15:46:16.690Z,21.27
2023-04-24T15:48:44.980Z,20.96
2023-04-24T15:51:13.247Z,21.48
2023-04-24T15:53:42.625Z,20.93
2023-04-24T15:56:11.412Z,20.97
2023-04-24T15:58:39.614Z,19.41
2023-04-24T16:01:07.912Z,20.83
2023-04-24T16:03:36.362Z,20.32
2023-04-24T16:06:04.364Z,20.91
2023-04-24T16:08:32.408Z,21.70
2023-04-24T16:11:04.242Z,21.08
2023-04-24T16:13:34.252Z,21.51
2023-04-24T16:16:04.473Z,20.75
2023-04-24T16:18:32.532Z,20.68
2023-04-24T16:21:11.653Z,21.04
2023-04-24T16:23:40.292Z,21.83
2023-04-24T16:26:09.713Z,21.79
2023-04-24T16:28:37.688Z,20.73
2023-04-24T16:31:06.048Z,21.52
2023-04-24T16:33:34.025Z,20.56
2023-04-24T16:36:01.881Z,20.28
2023-04-24T16:38:29.844Z,20.59
2023-04-24T16:40:57.946Z,20.04
2023-04-24T16:43:27.373Z,19.55
2023-04-24T16:45:55.562Z,20.15
2023-04-24T16:48:23.679Z,20.11
2023-04-24T16:50:51.756Z,20.43
2023-04-24T16:53:19.896Z,20.04
2023-04-24T16:55:51.115Z,19.64
2023-04-24T16:58:19.836Z,19.82
2023-04-24T17:00:50.765Z,19.79
2023-04-24T17:03:19.232Z,20.46
2023-04-24T17:05:47.573Z,20.42
2023-04-24T17:08:15.843Z,20.38
2023-04-24T17:10:44.288Z,20.74
2023-04-24T17:13:14.832Z,19.97
2023-04-24T17:15:43.743Z,19.65
2023-04-24T17:18:13.242Z,19.71
2023-04-24T17:20:41.686Z,20.18
2023-04-24T17:23:11.944Z,20.02
2023-04-24T17:25:40.045Z,19.26
2023-04-24T17:28:17.663Z,19.08
2023-04-24T17:30:45.736Z,19.60
2023-04-24T17:33:15.269Z,19.90
2023-04-24T17:35:43.186Z,19.81
2023-04-24T17:38:11.107Z,19.94
2023-04-24T17:40:40.382Z,19.56
2023-04-24T17:43:08.798Z,19.04
2023-04-24T17:45:37.507Z,20.23
2023-04-24T17:48:05.644Z,20.57
2023-04-24T17:50:35.765Z,19.26
2023-04-24T17:53:03.794Z,20.58
2023-04-24T17:55:32.174Z,20.61
2023-04-24T17:58:01.793Z,20.11
2023-04-24T18:00:30.085Z,20.01
2023-04-24T18:03:01.158Z,19.75
2023-04-24T18:05:29.879Z,20.63
2023-04-24T18:08:00.050Z,19.65
2023-04-24T18:10:29.819Z,19.42
2023-04-24T18:12:58.093Z,19.10
2023-04-24T18:15:26.764Z,19.63
2023-04-24T18:17:54.747Z,19.73
2023-04-24T18:20:22.799Z,20.15
2023-04-24T18:22:50.919Z,19.79
2023-04-24T18:25:26.572Z,19.46
2023-04-24T18:27:56.008Z,19.24
2023-04-24T18:30:25.409Z,18.77
2023-04-24T18:32:54.810Z,19.43
2023-04-24T18:35:23.873Z,19.44
2023-04-24T18:37:52.055Z,19.24
2023-04-24T18:40:22.171Z,18.98
2023-04-24T18:42:50.456Z,18.88
2023-04-24T18:45:18.466Z,18.75
2023-04-24T18:47:46.410Z,18.82
2023-04-24T18:50:14.679Z,19.32
2023-04-24T18:52:42.731Z,19.27
2023-04-24T18:55:11.235Z,19.04
2023-04-24T18:57:40.725Z,18.41
2023-04-24T19:00:10.158Z,19.10
2023-04-24T19:02:38.196Z,19.17
2023-04-24T19:05:07.456Z,19.84
2023-04-24T19:07:35.574Z,19.41
2023-04-24T19:10:07.161Z,19.11
2023-04-24T19:12:35.543Z,19.24
2023-04-24T19:15:05.704Z,18.99
2023-04-24T19:17:33.804Z,19.03
2023-04-24T19:20:01.882Z,19.80
2023-04-24T19:22:30.322Z,19.80
2023-04-24T19:24:59.265Z,19.46
2023-04-24T19:27:27.393Z,18.93
2023-04-24T19:29:55.375Z,19.20
2023-04-24T19:32:25.284Z,19.25
2023-04-24T19:34:53.270Z,19.80
2023-04-24T19:37:21.417Z,19.49
2023-04-24T19:39:49.485Z,19.15
2023-04-24T19:42:21.163Z,19.49
2023-04-24T19:44:53.950Z,19.31
2023-04-24T19:47:22.078Z,18.94
2023-04-24T19:49:51.523Z,18.95
2023-04-24T19:52:19.621Z,18.99
2023-04-24T19:54:47.593Z,18.75
2023-04-24T19:57:15.645Z,19.03
2023-04-24T19:59:43.840Z,17.99
2023-04-24T20:02:13.604Z,18.61
2023-04-24T20:04:44.740Z,19.41
2023-04-24T20:07:14.443Z,18.46
2023-04-24T20:09:42.666Z,18.54
2023-04-24T20:12:11.897Z,18.43
2023-04-24T20:14:40.569Z,18.97
2023-04-24T20:17:08.866Z,18.63
2023-04-24T20:19:37.066Z,18.34
2023-04-24T20:22:05.530Z,17.99
2023-04-24T20:24:35.093Z,18.64
2023-04-24T20:27:03.897Z,18.41
2023-04-24T20:29:32.192Z,18.98
2023-04-24T20:32:00.723Z,18.58
2023-04-24T20:34:28.854Z,18.13
2023-04-24T20:37:00.299Z,18.13
2023-04-24T20:39:28.539Z,17.85
2023-04-24T20:41:58.285Z,18.28
2023-04-24T20:44:26.630Z,18.99
2023-04-24T20:46:54.905Z,18.33
2023-04-24T20:49:23.951Z,18.58
2023-04-24T20:51:52.086Z,18.02
2023-04-24T20:54:20.095Z,18.34
2023-04-24T20:56:48.629Z,18.80
2023-04-24T20:59:18.353Z,18.57
2023-04-24T21:01:48.621Z,19.12
2023-04-24T21:04:17.003Z,18.38
2023-04-24T21:06:45.556Z,18.48
2023-04-24T21:09:13.710Z,18.75
2023-04-24T21:11:42.116Z,18.15
2023-04-24T21:14:10.561Z,18.75
2023-04-24T21:16:40.017Z,18.36
2023-04-24T21:19:08.139Z,18.43
2023-04-24T21:21:36.107Z,18.50
2023-04-24T21:24:04.502Z,18.66
2023-04-24T21:26:32.547Z,18.37
2023-04-24T21:29:00.633Z,18.55
2023-04-24T21:31:28.832Z,17.95
2023-04-24T21:33:58.195Z,18.27
2023-04-24T21:36:26.865Z,18.29
2023-04-24T21:38:55.375Z,18.39
2023-04-24T21:41:24.695Z,18.35
2023-04-24T21:43:52.962Z,18.53
2023-04-24T21:46:21.276Z,18.63
2023-04-24T21:48:49.264Z,18.80
2023-04-24T21:51:20.527Z,18.61
2023-04-24T21:53:49.012Z,18.44
2023-04-24T21:56:17.622Z,18.64
2023-04-24T21:58:46.899Z,19.45
2023-04-24T22:01:23.494Z,18.50
2023-04-24T22:03:52.256Z,18.34
2023-04-24T22:06:21.903Z,18.54
2023-04-24T22:08:49.833Z,18.84
2023-04-24T22:11:26.628Z,18.08
2023-04-24T22:13:55.689Z,19.05
2023-04-24T22:16:25.079Z,18.62
2023-04-24T22:18:55.384Z,18.44
2023-04-24T22:21:24.870Z,18.44
2023-04-24T22:23:53.008Z,18.45
2023-04-24T22:26:21.194Z,18.31
2023-04-24T22:28:49.076Z,18.48
2023-04-24T22:31:17.315Z,18.27
2023-04-24T22:33:47.810Z,18.41
2023-04-24T22:36:16.242Z,18.72
2023-04-24T22:38:45.901Z,19.00
2023-04-24T22:41:14.075Z,18.79
2023-04-24T22:43:42.016Z,18.69
2023-04-24T22:46:10.223Z,18.32
2023-04-24T22:48:38.127Z,18.58
2023-04-24T22:51:06.619Z,18.40
2023-04-24T22:53:36.170Z,19.00
2023-04-24T22:56:06.398Z,19.38
2023-04-24T22:58:34.417Z,18.78
2023-04-24T23:01:02.348Z,18.74
2023-04-24T23:03:31.699Z,18.40
2023-04-24T23:05:59.723Z,19.40
2023-04-24T23:08:27.748Z,18.87
2023-04-24T23:10:55.602Z,18.67
2023-04-24T23:13:25.827Z,18.86
2023-04-24T23:15:54.825Z,18.53
2023-04-24T23:18:22.818Z,18.43
2023-04-24T23:20:51.342Z,18.77
2023-04-24T23:23:19.291Z,17.60
2023-04-24T23:25:47.297Z,18.36
2023-04-24T23:28:15.203Z,17.61
2023-04-24T23:30:44.408Z,18.55
2023-04-24T23:33:12.415Z,18.55
2023-04-24T23:35:40.631Z,18.56
2023-04-24T23:38:08.601Z,18.46
2023-04-24T23:40:36.620Z,18.56
2023-04-24T23:43:07.979Z,18.95
2023-04-24T23:45:37.034Z,19.25
2023-04-24T23:48:06.855Z,19.35
2023-04-24T23:50:34.874Z,19.34
2023-04-24T23:53:03.031Z,19.34
2023-04-24T23:55:31.349Z,18.68
2023-04-24T23:57:59.333Z,18.54
